createdAt,value
2019-05-05T00:01:47.619Z,6.80
2019-05-05T00:04:24.318Z,6.80
2019-05-05T00:06:54.911Z,6.80
2019-05-05T00:09:25.220Z,6.90
2019-05-05T00:12:11.427Z,6.90
2019-05-05T00:14:41.792Z,6.90
2019-05-05T00:17:14.348Z,6.80
2019-05-05T00:19:42.492Z,6.80
2019-05-05T00:22:11.261Z,6.70
2019-05-05T00:24:40.064Z,6.80
2019-05-05T00:27:09.385Z,6.90
2019-05-05T00:29:38.199Z,6.80
2019-05-05T00:32:07.012Z,6.90
2019-05-05T00:34:35.839Z,6.90
2019-05-05T00:37:04.811Z,6.90
2019-05-05T00:39:34.499Z,6.90
2019-05-05T00:42:04.659Z,6.80
2019-05-05T00:44:35.076Z,6.80
2019-05-05T00:47:24.944Z,6.80
2019-05-05T00:49:56.119Z,6.80
2019-05-05T00:52:24.580Z,6.80
2019-05-05T00:54:55.448Z,6.70
2019-05-05T00:57:24.285Z,6.80
2019-05-05T00:59:54.405Z,6.80
2019-05-05T01:02:27.778Z,6.90
2019-05-05T01:05:01.123Z,6.80
2019-05-05T01:07:30.353Z,6.70
2019-05-05T01:09:59.118Z,6.70
2019-05-05T01:12:28.031Z,6.70
2019-05-05T01:14:56.851Z,6.60
2019-05-05T01:17:25.688Z,6.60
2019-05-05T01:20:03.233Z,6.70
2019-05-05T01:22:25.107Z,6.60
2019-05-05T01:24:55.437Z,6.60
2019-05-05T01:27:25.480Z,6.60
2019-05-05T01:29:54.664Z,6.60
2019-05-05T01:32:28.128Z,6.60
2019-05-05T01:34:56.964Z,6.50
2019-05-05T01:37:27.341Z,6.60
2019-05-05T01:40:04.977Z,6.70
2019-05-05T01:42:35.255Z,6.70
2019-05-05T01:45:04.612Z,6.70
2019-05-05T01:47:34.702Z,6.70
2019-05-05T01:50:17.213Z,6.70
2019-05-05T01:52:35.396Z,6.70
2019-05-05T01:55:05.994Z,6.80
2019-05-05T01:57:35.311Z,6.80
2019-05-05T02:00:07.336Z,6.80
2019-05-05T02:02:36.195Z,6.80
2019-05-05T02:05:06.833Z,6.80
2019-05-05T02:07:35.644Z,6.80
2019-05-05T02:10:06.400Z,6.80
2019-05-05T02:12:35.386Z,6.80
2019-05-05T02:15:06.603Z,6.80
2019-05-05T02:17:35.431Z,6.80
2019-05-05T02:20:05.867Z,6.80
2019-05-05T02:22:35.635Z,6.80
2019-05-05T02:25:06.172Z,6.80
2019-05-05T02:27:34.930Z,6.70
2019-05-05T02:30:06.608Z,6.70
2019-05-05T02:32:39.732Z,6.60
2019-05-05T02:35:18.643Z,6.60
2019-05-05T02:37:47.401Z,6.60
2019-05-05T02:40:17.220Z,6.50
2019-05-05T02:42:45.886Z,6.40
2019-05-05T02:45:24.766Z,6.40
2019-05-05T02:48:05.977Z,6.30
2019-05-05T02:50:52.400Z,6.20
2019-05-05T02:53:10.390Z,6.10
2019-05-05T02:55:39.232Z,6.10
2019-05-05T02:58:08.057Z,6.10
2019-05-05T03:00:40.910Z,6.10
2019-05-05T03:03:09.818Z,6.10
2019-05-05T03:05:38.684Z,6.10
2019-05-05T03:08:07.491Z,6.10
2019-05-05T03:10:36.330Z,6.00
2019-05-05T03:13:05.832Z,6.00
2019-05-05T03:15:55.643Z,6.00
2019-05-05T03:18:24.802Z,6.00
2019-05-05T03:21:02.379Z,6.10
2019-05-05T03:23:24.212Z,6.10
2019-05-05T03:25:54.578Z,6.20
2019-05-05T03:28:25.712Z,6.20
2019-05-05T03:30:55.760Z,6.20
2019-05-05T03:33:25.267Z,6.20
2019-05-05T03:35:54.304Z,6.20
2019-05-05T03:38:24.822Z,6.20
2019-05-05T03:40:55.312Z,6.20
2019-05-05T03:43:25.700Z,6.20
2019-05-05T03:45:56.186Z,6.20
2019-05-05T03:48:25.132Z,6.20
2019-05-05T03:50:54.207Z,6.30
2019-05-05T03:53:24.593Z,6.30
2019-05-05T03:55:54.583Z,6.40
2019-05-05T03:58:24.133Z,6.40
2019-05-05T04:00:55.975Z,6.40
2019-05-05T04:03:24.722Z,6.40
2019-05-05T04:05:57.866Z,6.40
2019-05-05T04:08:26.691Z,6.40
2019-05-05T04:10:55.511Z,6.40
2019-05-05T04:13:24.464Z,6.40
2019-05-05T04:16:06.963Z,6.40
2019-05-05T04:18:43.628Z,6.40
2019-05-05T04:21:14.396Z,6.40
2019-05-05T04:23:44.164Z,6.40
2019-05-05T04:26:14.228Z,6.40
2019-05-05T04:28:43.643Z,6.40
2019-05-05T04:31:13.540Z,6.40
2019-05-05T04:33:44.338Z,6.40
2019-05-05T04:36:14.562Z,6.40
2019-05-05T04:38:43.981Z,6.30
2019-05-05T04:41:14.035Z,6.30
2019-05-05T04:43:44.187Z,6.30
2019-05-05T04:46:14.042Z,6.30
2019-05-05T04:48:43.958Z,6.30
2019-05-05T04:51:13.984Z,6.40
2019-05-05T04:54:00.250Z,6.40
2019-05-05T04:56:30.097Z,6.30
2019-05-05T04:58:58.900Z,6.30
2019-05-05T05:01:27.708Z,6.30
2019-05-05T05:04:16.364Z,6.30
2019-05-05T05:06:46.692Z,6.40
2019-05-05T05:09:15.433Z,6.40
2019-05-05T05:11:44.386Z,6.40
2019-05-05T05:14:14.380Z,6.40
2019-05-05T05:16:43.744Z,6.30
2019-05-05T05:19:13.741Z,6.50
2019-05-05T05:21:43.652Z,6.40
2019-05-05T05:24:14.495Z,6.30
2019-05-05T05:26:44.162Z,6.40
2019-05-05T05:29:14.914Z,6.50
2019-05-05T05:31:44.294Z,6.40
2019-05-05T05:34:12.362Z,6.40
2019-05-05T05:36:41.239Z,6.40
2019-05-05T05:39:14.507Z,6.30
2019-05-05T05:41:44.036Z,6.40
2019-05-05T05:44:18.012Z,6.40
2019-05-05T05:46:54.636Z,6.40
2019-05-05T05:49:30.955Z,6.40
2019-05-05T05:52:12.548Z,6.30
2019-05-05T05:54:30.659Z,6.30
2019-05-05T05:56:59.394Z,6.20
2019-05-05T05:59:28.085Z,6.50
2019-05-05T06:02:09.162Z,6.50
2019-05-05T06:04:28.446Z,6.60
2019-05-05T06:06:57.175Z,6.60
2019-05-05T06:09:26.016Z,6.60
2019-05-05T06:11:54.724Z,6.60
2019-05-05T06:14:24.711Z,6.70
2019-05-05T06:16:53.949Z,6.70
2019-05-05T06:19:24.503Z,6.60
2019-05-05T06:21:54.292Z,6.60
2019-05-05T06:24:24.014Z,6.60
2019-05-05T06:26:54.744Z,6.70
2019-05-05T06:29:23.945Z,6.50
2019-05-05T06:31:53.818Z,6.50
2019-05-05T06:34:24.405Z,6.50
2019-05-05T06:39:59.063Z,6.50
2019-05-05T06:42:29.427Z,6.60
2019-05-05T06:45:04.235Z,6.60
2019-05-05T06:47:34.211Z,6.70
2019-05-05T06:50:04.477Z,6.70
2019-05-05T06:52:43.747Z,6.70
2019-05-05T06:55:04.618Z,6.90
2019-05-05T06:57:34.329Z,6.80
2019-05-05T07:00:06.084Z,6.90
2019-05-05T07:02:35.639Z,6.80
2019-05-05T07:05:05.255Z,6.80
2019-05-05T07:07:34.384Z,6.80
2019-05-05T07:10:04.572Z,6.70
2019-05-05T07:12:34.708Z,6.70
2019-05-05T07:15:05.510Z,6.70
2019-05-05T07:17:35.493Z,6.90
2019-05-05T07:20:08.172Z,7.00
2019-05-05T07:22:37.003Z,7.00
2019-05-05T07:25:06.182Z,7.20
2019-05-05T07:27:36.931Z,7.30
2019-05-05T07:30:07.086Z,7.20
2019-05-05T07:32:37.234Z,7.30
2019-05-05T07:35:08.221Z,7.40
2019-05-05T07:37:37.167Z,7.30
2019-05-05T07:40:07.826Z,7.20
2019-05-05T07:42:36.591Z,7.40
2019-05-05T07:45:19.446Z,7.50
2019-05-05T07:47:38.656Z,7.40
2019-05-05T07:50:14.539Z,7.50
2019-05-05T07:52:38.671Z,7.50
2019-05-05T07:55:07.469Z,7.50
2019-05-05T07:57:36.763Z,7.60
2019-05-05T08:00:07.400Z,7.60
2019-05-05T08:02:36.152Z,7.40
2019-05-05T08:05:07.171Z,7.40
2019-05-05T08:07:35.911Z,7.50
2019-05-05T08:10:06.339Z,7.30
2019-05-05T08:12:35.075Z,7.40
2019-05-05T08:15:07.821Z,7.50
2019-05-05T08:17:39.004Z,7.40
2019-05-05T08:20:19.207Z,7.40
2019-05-05T08:22:46.561Z,7.40
2019-05-05T08:25:34.524Z,7.40
2019-05-05T08:28:10.707Z,7.40
2019-05-05T08:30:44.193Z,7.50
2019-05-05T08:33:14.084Z,7.50
2019-05-05T08:35:44.829Z,7.50
2019-05-05T08:38:13.764Z,7.50
2019-05-05T08:40:43.806Z,7.60
2019-05-05T08:43:13.825Z,7.70
2019-05-05T08:45:44.336Z,7.80
2019-05-05T08:48:14.205Z,7.70
2019-05-05T08:50:43.871Z,7.70
2019-05-05T08:53:13.821Z,7.60
2019-05-05T08:55:44.328Z,7.70
2019-05-05T09:01:54.121Z,7.90
2019-05-05T09:04:24.698Z,7.90
2019-05-05T09:06:54.306Z,7.70
2019-05-05T09:09:24.149Z,7.80
2019-05-05T09:11:54.180Z,7.80
2019-05-05T09:14:24.024Z,7.80
2019-05-05T09:16:53.707Z,7.80
2019-05-05T09:19:24.013Z,7.80
2019-05-05T09:21:54.133Z,7.40
2019-05-05T09:24:39.200Z,7.50
2019-05-05T09:27:14.185Z,7.50
2019-05-05T09:29:44.109Z,7.50
2019-05-05T09:32:13.957Z,7.50
2019-05-05T09:34:43.579Z,7.50
2019-05-05T09:37:11.718Z,7.50
2019-05-05T09:39:40.452Z,7.50
2019-05-05T09:42:09.272Z,7.40
2019-05-05T09:44:38.090Z,7.60
2019-05-05T09:47:06.915Z,7.50
2019-05-05T09:49:35.655Z,7.50
2019-05-05T09:52:04.957Z,7.80
2019-05-05T09:54:34.555Z,7.70
2019-05-05T09:57:04.510Z,8.00
2019-05-05T09:59:34.652Z,8.00
2019-05-05T10:02:04.422Z,8.00
2019-05-05T10:04:34.539Z,8.30
2019-05-05T10:07:04.468Z,8.50
2019-05-05T10:09:34.489Z,8.60
2019-05-05T10:12:04.749Z,8.60
2019-05-05T10:14:35.105Z,8.70
2019-05-05T10:17:04.918Z,8.90
2019-05-05T10:19:33.857Z,9.00
2019-05-05T10:22:04.030Z,9.30
2019-05-05T10:24:37.346Z,9.90
2019-05-05T10:27:06.159Z,10.30
2019-05-05T10:29:34.903Z,10.60
2019-05-05T10:32:04.576Z,10.50
2019-05-05T10:34:33.598Z,10.60
2019-05-05T10:37:04.186Z,10.40
2019-05-05T10:39:40.520Z,11.10
2019-05-05T10:42:09.380Z,11.40
2019-05-05T10:44:38.087Z,11.60
2019-05-05T10:47:06.835Z,12.40
2019-05-05T10:49:35.666Z,12.60
2019-05-05T10:52:04.412Z,12.90
2019-05-05T10:54:43.831Z,13.30
2019-05-05T10:57:04.190Z,13.10
2019-05-05T10:59:34.425Z,12.40
2019-05-05T11:02:04.925Z,11.50
2019-05-05T11:04:34.023Z,11.70
2019-05-05T11:07:04.189Z,11.60
2019-05-05T11:09:33.938Z,11.70
2019-05-05T11:12:02.679Z,11.50
2019-05-05T11:14:33.661Z,12.40
2019-05-05T11:17:04.117Z,13.30
2019-05-05T11:19:33.576Z,15.10
2019-05-05T11:22:02.488Z,16.10
2019-05-05T11:24:31.197Z,16.40
2019-05-05T11:26:59.929Z,15.60
2019-05-05T11:29:28.684Z,15.90
2019-05-05T11:31:59.076Z,16.60
2019-05-05T11:34:28.200Z,16.90
2019-05-05T11:36:58.639Z,17.30
2019-05-05T11:39:27.407Z,17.10
2019-05-05T11:41:56.312Z,16.00
2019-05-05T11:44:25.131Z,15.40
2019-05-05T11:46:54.719Z,15.10
2019-05-05T11:49:24.483Z,14.60
2019-05-05T11:51:54.256Z,14.40
2019-05-05T11:54:24.517Z,14.40
2019-05-05T11:56:54.016Z,14.20
2019-05-05T11:59:23.732Z,14.10
2019-05-05T12:01:54.963Z,14.10
2019-05-05T12:04:23.904Z,14.40
2019-05-05T12:06:52.874Z,14.40
2019-05-05T12:09:24.807Z,14.50
2019-05-05T12:11:54.587Z,14.10
2019-05-05T12:14:27.121Z,13.80
2019-05-05T12:16:55.475Z,14.00
2019-05-05T12:19:24.485Z,13.90
2019-05-05T12:21:54.847Z,13.60
2019-05-05T12:24:25.387Z,13.40
2019-05-05T12:26:55.706Z,13.40
2019-05-05T12:29:24.662Z,14.10
2019-05-05T12:31:53.465Z,14.20
2019-05-05T12:34:23.613Z,14.30
2019-05-05T12:36:53.966Z,14.70
2019-05-05T12:39:22.994Z,14.50
2019-05-05T12:42:05.115Z,14.10
2019-05-05T12:44:35.536Z,14.60
2019-05-05T12:47:06.159Z,14.40
2019-05-05T12:49:35.008Z,15.20
2019-05-05T12:52:04.756Z,14.80
2019-05-05T12:54:33.668Z,15.00
2019-05-05T12:57:04.399Z,15.40
2019-05-05T12:59:33.859Z,14.20
2019-05-05T13:02:03.820Z,14.60
2019-05-05T13:04:33.872Z,14.70
2019-05-05T13:07:04.984Z,16.20
2019-05-05T13:09:34.238Z,16.40
2019-05-05T13:12:04.525Z,15.90
2019-05-05T13:14:33.830Z,15.40
2019-05-05T13:17:03.631Z,15.70
2019-05-05T13:19:43.839Z,15.30
2019-05-05T13:22:30.599Z,15.70
2019-05-05T13:25:07.715Z,17.30
2019-05-05T13:27:39.716Z,18.90
2019-05-05T13:30:09.328Z,17.70
2019-05-05T13:32:38.214Z,18.20
2019-05-05T13:35:07.888Z,19.80
2019-05-05T13:37:36.729Z,20.50
2019-05-05T13:40:07.543Z,21.20
2019-05-05T13:42:36.380Z,22.10
2019-05-05T13:45:15.587Z,21.70
2019-05-05T13:47:43.715Z,21.40
2019-05-05T13:50:23.292Z,21.50
2019-05-05T13:52:50.948Z,21.40
2019-05-05T13:55:21.124Z,20.50
2019-05-05T13:57:54.828Z,20.20
2019-05-05T14:00:25.620Z,20.40
2019-05-05T14:02:54.535Z,21.00
2019-05-05T14:05:24.030Z,21.30
2019-05-05T14:07:53.681Z,21.40
2019-05-05T14:10:23.654Z,21.20
2019-05-05T14:12:52.557Z,20.80
2019-05-05T14:15:23.358Z,21.00
2019-05-05T14:17:51.931Z,21.50
2019-05-05T14:20:20.674Z,22.50
2019-05-05T14:22:51.202Z,23.00
2019-05-05T14:25:21.638Z,23.50
2019-05-05T14:27:50.456Z,23.70
2019-05-05T14:30:23.632Z,24.50
2019-05-05T14:32:54.349Z,24.90
2019-05-05T14:35:40.577Z,24.40
2019-05-05T14:38:10.971Z,25.30
2019-05-05T14:40:39.827Z,24.80
2019-05-05T14:43:08.626Z,23.30
2019-05-05T14:45:37.457Z,22.50
2019-05-05T14:48:07.901Z,22.60
2019-05-05T14:50:36.623Z,22.20
2019-05-05T14:53:05.377Z,21.20
2019-05-05T14:55:34.209Z,20.30
2019-05-05T14:58:04.020Z,19.30
2019-05-05T15:00:33.685Z,18.60
2019-05-05T15:03:03.649Z,18.20
2019-05-05T15:05:40.111Z,17.60
2019-05-05T15:08:10.501Z,16.90
2019-05-05T15:10:56.711Z,16.50
2019-05-05T15:13:25.916Z,15.90
2019-05-05T15:15:54.775Z,15.50
2019-05-05T15:18:24.168Z,15.30
2019-05-05T15:20:54.676Z,14.90
2019-05-05T15:23:24.104Z,14.70
2019-05-05T15:25:54.029Z,14.10
2019-05-05T15:28:24.554Z,13.90
2019-05-05T15:30:54.512Z,13.70
2019-05-05T15:33:24.330Z,13.50
2019-05-05T15:35:54.036Z,13.50
2019-05-05T15:38:24.411Z,13.30
2019-05-05T15:40:54.748Z,13.20
2019-05-05T15:43:24.277Z,13.10
2019-05-05T15:45:54.105Z,13.00
2019-05-05T15:48:23.151Z,12.90
2019-05-05T15:50:52.060Z,12.90
2019-05-05T15:53:20.879Z,13.00
2019-05-05T15:55:50.856Z,12.90
2019-05-05T15:58:20.843Z,12.90
2019-05-05T16:00:49.536Z,12.80
2019-05-05T16:03:19.527Z,12.70
2019-05-05T16:05:48.277Z,12.60
2019-05-05T16:08:17.109Z,12.40
2019-05-05T16:10:46.601Z,12.50
2019-05-05T16:13:15.686Z,12.40
2019-05-05T16:15:46.092Z,12.20
2019-05-05T16:18:16.489Z,12.20
2019-05-05T16:20:58.614Z,12.30
2019-05-05T16:23:35.949Z,14.70
2019-05-05T16:26:04.828Z,17.90
2019-05-05T16:28:34.258Z,19.50
2019-05-05T16:31:02.262Z,20.80
2019-05-05T16:33:30.951Z,21.60
2019-05-05T16:35:59.623Z,22.40
2019-05-05T16:38:28.441Z,22.80
2019-05-05T16:40:57.256Z,23.60
2019-05-05T16:43:26.074Z,24.10
2019-05-05T16:45:56.708Z,24.60
2019-05-05T16:48:25.764Z,25.20
2019-05-05T16:50:54.229Z,25.90
2019-05-05T16:53:35.410Z,26.20
2019-05-05T16:56:09.081Z,26.30
2019-05-05T16:58:41.264Z,26.20
2019-05-05T17:01:14.425Z,26.30
2019-05-05T17:03:45.447Z,26.30
2019-05-05T17:06:14.036Z,26.30
2019-05-05T17:08:44.419Z,26.10
2019-05-05T17:11:15.809Z,25.60
2019-05-05T17:13:50.523Z,25.40
2019-05-05T17:16:29.904Z,25.50
2019-05-05T17:19:15.511Z,25.00
2019-05-05T17:21:53.616Z,24.00
2019-05-05T17:24:23.992Z,23.20
2019-05-05T17:26:54.966Z,22.80
2019-05-05T17:29:25.319Z,22.50
2019-05-05T17:31:54.214Z,21.40
2019-05-05T17:34:24.751Z,20.60
2019-05-05T17:36:53.984Z,20.40
2019-05-05T17:39:23.940Z,20.30
2019-05-05T17:41:56.081Z,18.80
2019-05-05T17:44:44.367Z,17.30
2019-05-05T17:47:21.951Z,16.40
2019-05-05T17:50:04.172Z,15.70
2019-05-05T17:52:51.320Z,15.00
2019-05-05T17:55:30.007Z,14.20
2019-05-05T17:58:02.130Z,13.70
2019-05-05T18:00:34.080Z,13.10
2019-05-05T18:03:04.181Z,12.70
2019-05-05T18:05:54.343Z,12.50
2019-05-05T18:08:35.815Z,12.20
2019-05-05T18:11:13.932Z,11.90
2019-05-05T18:13:44.174Z,11.60
2019-05-05T18:16:14.047Z,11.50
2019-05-05T18:18:44.467Z,11.30
2019-05-05T18:21:14.202Z,11.10
2019-05-05T18:23:43.844Z,10.90
2019-05-05T18:26:13.644Z,10.80
2019-05-05T18:28:44.736Z,10.70
2019-05-05T18:31:13.932Z,10.60
2019-05-05T18:33:42.931Z,10.40
2019-05-05T18:36:14.176Z,10.20
2019-05-05T18:38:44.446Z,10.20
2019-05-05T18:41:15.085Z,10.20
2019-05-05T18:43:51.256Z,10.00
2019-05-05T18:46:20.789Z,10.00
2019-05-05T18:48:49.800Z,9.90
2019-05-05T18:51:18.648Z,9.80
2019-05-05T18:53:47.456Z,9.70
2019-05-05T18:56:16.281Z,9.70
2019-05-05T18:58:48.099Z,9.60
2019-05-05T19:01:36.338Z,9.60
2019-05-05T19:04:07.535Z,9.50
2019-05-05T19:06:49.112Z,9.40
2019-05-05T19:09:19.787Z,9.40
2019-05-05T19:11:50.562Z,9.30
2019-05-05T19:14:19.367Z,9.20
2019-05-05T19:16:48.305Z,9.20
2019-05-05T19:19:17.116Z,9.10
2019-05-05T19:22:05.112Z,9.00
2019-05-05T19:24:35.515Z,8.90
2019-05-05T19:27:05.680Z,8.90
2019-05-05T19:29:34.436Z,8.80
2019-05-05T19:32:04.112Z,8.70
2019-05-05T19:34:35.108Z,8.60
2019-05-05T19:37:03.951Z,8.60
2019-05-05T19:39:34.452Z,8.80
2019-05-05T19:42:05.438Z,8.60
2019-05-05T19:44:34.275Z,8.50
2019-05-05T19:47:07.130Z,8.50
2019-05-05T19:49:39.020Z,8.50
2019-05-05T19:52:08.895Z,8.40
2019-05-05T19:54:37.907Z,8.40
2019-05-05T19:57:06.728Z,8.30
2019-05-05T19:59:36.129Z,8.30
2019-05-05T20:02:05.728Z,8.20
2019-05-05T20:04:36.569Z,8.10
2019-05-05T20:07:05.420Z,8.00
2019-05-05T20:09:35.048Z,8.00
2019-05-05T20:12:04.995Z,7.90
2019-05-05T20:14:34.269Z,8.00
2019-05-05T20:17:10.772Z,8.00
2019-05-05T20:19:41.151Z,7.90
2019-05-05T20:22:09.931Z,7.90
2019-05-05T20:24:38.691Z,7.80
2019-05-05T20:27:07.519Z,7.80
2019-05-05T20:29:37.504Z,7.70
2019-05-05T20:32:06.460Z,7.70
2019-05-05T20:34:42.411Z,7.60
2019-05-05T20:37:14.121Z,7.60
2019-05-05T20:39:43.960Z,7.50
2019-05-05T20:42:14.943Z,7.50
2019-05-05T20:44:43.870Z,7.40
2019-05-05T20:47:12.779Z,7.40
2019-05-05T20:49:41.459Z,7.30
2019-05-05T20:52:10.284Z,7.30
2019-05-05T20:54:39.056Z,7.20
2019-05-05T20:57:07.812Z,7.20
2019-05-05T20:59:36.519Z,7.20
2019-05-05T21:02:05.333Z,7.10
2019-05-05T21:04:34.623Z,7.10
2019-05-05T21:07:04.472Z,7.10
2019-05-05T21:09:34.468Z,7.00
2019-05-05T21:12:04.740Z,7.00
2019-05-05T21:14:37.102Z,6.90
2019-05-05T21:17:04.280Z,6.90
2019-05-05T21:19:34.516Z,6.90
2019-05-05T21:22:21.211Z,6.80
2019-05-05T21:24:50.332Z,6.70
2019-05-05T21:27:20.156Z,6.70
2019-05-05T21:29:48.839Z,6.60
2019-05-05T21:32:17.668Z,6.60
2019-05-05T21:34:46.449Z,6.60
2019-05-05T21:37:15.279Z,6.60
2019-05-05T21:39:45.453Z,6.50
2019-05-05T21:42:14.331Z,6.50
2019-05-05T21:44:44.228Z,6.40
2019-05-05T21:47:14.156Z,6.40
2019-05-05T21:49:43.074Z,6.40
2019-05-05T21:52:19.467Z,6.30
2019-05-05T21:54:49.855Z,6.30
2019-05-05T21:57:36.484Z,6.30
2019-05-05T22:00:10.509Z,6.20
2019-05-05T22:02:39.339Z,6.20
2019-05-05T22:05:08.421Z,6.10
2019-05-05T22:07:37.251Z,6.10
2019-05-05T22:10:06.415Z,6.00
2019-05-05T22:12:36.264Z,6.00
2019-05-05T22:15:06.352Z,6.00
2019-05-05T22:17:36.328Z,5.90
2019-05-05T22:20:07.578Z,5.90
2019-05-05T22:22:37.962Z,5.80
2019-05-05T22:25:07.655Z,5.80
2019-05-05T22:27:35.628Z,5.80
2019-05-05T22:30:10.269Z,5.70
2019-05-05T22:32:38.556Z,5.70
2019-05-05T22:35:07.591Z,5.60
2019-05-05T22:37:36.401Z,5.60
2019-05-05T22:40:05.332Z,5.60
2019-05-05T22:42:34.250Z,5.60
2019-05-05T22:45:04.631Z,5.60
2019-05-05T22:47:34.487Z,5.60
2019-05-05T22:50:04.470Z,5.60
2019-05-05T22:52:34.407Z,5.50
2019-05-05T22:55:04.505Z,5.50
2019-05-05T22:57:34.442Z,5.50
2019-05-05T23:00:05.198Z,5.40
2019-05-05T23:02:35.604Z,5.40
2019-05-05T23:05:16.494Z,5.40
2019-05-05T23:07:45.251Z,5.40
2019-05-05T23:10:14.139Z,5.30
2019-05-05T23:12:43.981Z,5.30
2019-05-05T23:15:14.306Z,5.30
2019-05-05T23:17:55.874Z,5.20
2019-05-05T23:20:45.320Z,5.20
2019-05-05T23:23:15.722Z,5.20
2019-05-05T23:25:46.149Z,5.20
2019-05-05T23:28:14.895Z,5.10
2019-05-05T23:30:44.719Z,5.00
2019-05-05T23:33:14.285Z,5.00
2019-05-05T23:35:43.730Z,5.00
2019-05-05T23:38:14.311Z,5.00
2019-05-05T23:40:42.832Z,5.00
2019-05-05T23:43:13.803Z,5.00
2019-05-05T23:45:41.984Z,4.90
2019-05-05T23:48:10.735Z,4.90
2019-05-05T23:50:39.504Z,4.90
2019-05-05T23:53:08.325Z,4.80
2019-05-05T23:55:37.088Z,4.70
2019-05-05T23:58:05.869Z,4.70
